Capt. Troy Green — WDI5675 — position and weather

sailwx.info

Track history (hours):
 
Tides and Currents Weather Stations Pressure Air Temp Water Temp Dewpoint Dewpoint Depression Visibility Wind Speed Wind Dir Waves Ship Positions

Capt. Troy Green

Owner: Blessey Enterprises, Inc., Harahan, LA. More information available from US FCC via Universal Licensing System and Coast Guard Vessel Documentation Center.

Last reported at 2017-Sep-12 04:57 UTC. Time now 2017-Sep-23 07:45 UTC.
Position N 29°34' W 090°29'.
Warning: this ship's position is 11 days out of date.

Length 22 m; draft 3.3 m.

Type: Other ship. MMSI: 367710960.

Date/timePositionNaut miles runAvg speedWind from/ knotsBaromVisibWave heightAir tempDewpointWater temp
2017-Sep-12 04:57N 29°34' W 090°29'3 7.2
2017-Sep-12 04:30N 29°34' W 090°33'3 6.0
2017-Sep-12 04:00N 29°35' W 090°36'3 6.2
2017-Sep-12 03:30N 29°36' W 090°39'3 5.5
2017-Sep-12 03:00N 29°37' W 090°42'2 4.9
2017-Sep-12 02:30N 29°34' W 090°43'3 6.0
2017-Sep-12 02:00N 29°32' W 090°46'4 7.2
2017-Sep-12 01:30N 29°32' W 090°50'67 5.8
2017-Sep-11 13:59N 29°48' W 092°05'3 6.7
2017-Sep-11 13:29N 29°47' W 092°08'3 6.4
2017-Sep-11 13:00N 29°47' W 092°12'3 5.5
2017-Sep-11 12:29N 29°48' W 092°15'3 6.3
2017-Sep-11 11:58N 29°50' W 092°18'43 6.5
2017-Sep-11 05:28N 29°56' W 093°07'3 6.0
2017-Sep-11 05:00N 29°56' W 093°10'3 6.3
2017-Sep-11 04:28N 29°59' W 093°12'3 5.9
2017-Sep-11 04:00N 30°01' W 093°14'3 5.4
2017-Sep-11 03:29N 30°04' W 093°16'3 4.7
2017-Sep-11 02:55N 30°06' W 093°18'1 3.6
2017-Sep-11 02:30N 30°05' W 093°20'3 4.6
2017-Sep-11 01:57N 30°04' W 093°22'3 6.8
2017-Sep-11 01:30N 30°04' W 093°25'4 8.1
2017-Sep-11 01:00N 30°04' W 093°30'4 8.0
2017-Sep-11 00:30N 30°04' W 093°35'4 7.4
2017-Sep-11 00:00N 30°04' W 093°39'21 2.1
2017-Sep-10 13:50N 29°50' W 093°58'17 1.7
2017-Sep-10 03:45N 30°02' W 093°44'3 7.6
2017-Sep-10 03:24N 30°04' W 093°42'2 6.2
2017-Sep-10 03:00N 30°04' W 093°39'3 5.9
2017-Sep-10 02:30N 30°04' W 093°35'2 4.4
2017-Sep-10 02:00N 30°04' W 093°33'2 4.7
2017-Sep-10 01:30N 30°04' W 093°30'2 4.7
2017-Sep-10 01:00N 30°04' W 093°27'2 4.7
2017-Sep-10 00:30N 30°04' W 093°25'2 4.2
2017-Sep-10 00:00N 30°04' W 093°22'2 3.2
2017-Sep-09 23:30N 30°04' W 093°21'1 2.2
2017-Sep-09 23:00N 30°05' W 093°20'2 3.2
2017-Sep-09 22:30N 30°06' W 093°18'0 0.0
2017-Sep-09 22:00N 30°06' W 093°18'0 0.0
2017-Sep-09 21:30N 30°06' W 093°18'0 0.0
2017-Sep-09 21:00N 30°06' W 093°18'0 0.0
2017-Sep-09 20:30N 30°06' W 093°18'0 0.0
2017-Sep-09 20:00N 30°06' W 093°18'0 0.0
2017-Sep-09 19:30N 30°06' W 093°18'0 0.0
2017-Sep-09 19:00N 30°06' W 093°18'0 0.0
2017-Sep-09 18:30N 30°06' W 093°18'0 0.0
2017-Sep-09 18:00N 30°06' W 093°18'0 0.0
2017-Sep-09 17:30N 30°06' W 093°18'0 0.0
2017-Sep-09 17:00N 30°06' W 093°18'0 0.0
2017-Sep-09 16:30N 30°06' W 093°18'0 0.0
2017-Sep-09 16:00N 30°06' W 093°18'0 0.0
2017-Sep-09 15:30N 30°06' W 093°18'0 0.0
2017-Sep-09 15:00N 30°06' W 093°18'0 0.0
2017-Sep-09 14:29N 30°06' W 093°18'0 0.0
2017-Sep-09 13:58N 30°06' W 093°18'0 0.0
2017-Sep-09 13:03N 30°06' W 093°18'0 0.0
2017-Sep-09 13:00N 30°06' W 093°18'0 0.0
2017-Sep-09 12:30N 30°06' W 093°18'0 0.0
2017-Sep-09 12:00N 30°06' W 093°18'0 0.0
2017-Sep-09 11:29N 30°06' W 093°18'0 0.0
2017-Sep-09 10:57N 30°06' W 093°18'0 0.0
2017-Sep-09 10:26N 30°06' W 093°18'0 0.0
2017-Sep-09 09:58N 30°06' W 093°18'0 0.0
2017-Sep-09 09:30N 30°06' W 093°18'0 0.0
2017-Sep-09 08:58N 30°06' W 093°18'0 0.1
2017-Sep-09 08:30N 30°06' W 093°18'0 0.0
2017-Sep-09 07:59N 30°06' W 093°18'0 0.0
2017-Sep-09 07:30N 30°06' W 093°18'0 0.0
2017-Sep-09 07:00N 30°06' W 093°18'0 0.0
2017-Sep-09 06:30N 30°06' W 093°18'0 0.0
2017-Sep-09 04:29N 30°06' W 093°18'0 0.0
2017-Sep-09 03:50N 30°06' W 093°18'0 0.0
2017-Sep-09 03:10N 30°06' W 093°18'0 0.0
2017-Sep-09 03:00N 30°06' W 093°18'0 0.0
2017-Sep-09 02:22N 30°06' W 093°18'0 0.0
2017-Sep-09 02:00N 30°06' W 093°18'0 0.0
2017-Sep-09 01:21N 30°06' W 093°18'0 0.0
2017-Sep-09 01:00N 30°06' W 093°18'0 0.0
2017-Sep-09 00:30N 30°06' W 093°18'0 0.0
2017-Sep-09 00:00N 30°06' W 093°18'0 0.0
2017-Sep-08 23:30N 30°06' W 093°18'0 0.0
2017-Sep-08 23:00N 30°06' W 093°18'0 0.0
2017-Sep-08 22:30N 30°06' W 093°18'0 0.0
2017-Sep-08 22:00N 30°06' W 093°18'0 0.0
2017-Sep-08 21:30N 30°06' W 093°18'0 0.0
2017-Sep-08 21:00N 30°06' W 093°18'0 0.0
2017-Sep-08 20:30N 30°06' W 093°18'0 0.0
2017-Sep-08 20:00N 30°06' W 093°18'0 0.0
2017-Sep-08 19:30N 30°06' W 093°18'0 0.0
2017-Sep-08 19:00N 30°06' W 093°18'0 0.0
2017-Sep-08 18:30N 30°06' W 093°18'0 0.0
2017-Sep-08 18:00N 30°06' W 093°18'0 0.0
2017-Sep-08 17:30N 30°06' W 093°18'0 0.0
2017-Sep-08 17:00N 30°06' W 093°18'0 0.0
2017-Sep-08 16:30N 30°06' W 093°18'0 0.0
2017-Sep-08 16:00N 30°06' W 093°18'0 0.0
2017-Sep-08 15:30N 30°06' W 093°18'0 0.0
2017-Sep-08 15:00N 30°06' W 093°18'0 0.0
2017-Sep-08 14:30N 30°06' W 093°18'0 0.0
2017-Sep-08 14:00N 30°06' W 093°18'0 0.0
2017-Sep-08 13:30N 30°06' W 093°18'0 0.0
2017-Sep-08 13:00N 30°06' W 093°18'0 0.1
2017-Sep-08 12:30N 30°06' W 093°18'0 0.0
2017-Sep-08 12:00N 30°06' W 093°18'0 0.1
2017-Sep-08 11:30N 30°06' W 093°18'5 2.8
2017-Sep-08 09:53N 30°02' W 093°15'6 5.5
2017-Sep-08 08:48N 29°58' W 093°11'46 5.8
2017-Sep-08 00:54N 29°50' W 092°18'2 5.1
2017-Sep-08 00:30N 29°49' W 092°17'3 5.6
2017-Sep-08 00:00N 29°48' W 092°14'2 4.2
2017-Sep-07 23:30N 29°47' W 092°11'1 1.5
2017-Sep-07 23:00N 29°47' W 092°11'2 4.6
2017-Sep-07 22:30N 29°47' W 092°08'3 6.0
2017-Sep-07 22:00N 29°48' W 092°05'3 6.1
2017-Sep-07 21:30N 29°49' W 092°01'56 5.8
2017-Sep-07 11:43N 29°36' W 090°58'1 6.7
2017-Sep-07 11:30N 29°35' W 090°57'3 6.7
2017-Sep-07 11:00N 29°33' W 090°54'4 6.5
2017-Sep-07 10:28N 29°32' W 090°50'3 6.5
2017-Sep-07 10:00N 29°32' W 090°47'3 5.2
2017-Sep-07 09:30N 29°34' W 090°45'2 4.3
2017-Sep-07 09:00N 29°35' W 090°43'2 3.5
2017-Sep-07 08:30N 29°37' W 090°41'2 4.7
2017-Sep-07 08:00N 29°36' W 090°39'3 5.7
2017-Sep-07 07:30N 29°35' W 090°36'3 5.7
2017-Sep-07 07:00N 29°34' W 090°33'3 6.3
2017-Sep-07 06:30N 29°34' W 090°29'3 6.2
2017-Sep-07 06:00N 29°33' W 090°26'2 4.6
2017-Sep-07 05:29N 29°34' W 090°23'3 5.2
2017-Sep-07 04:58N 29°36' W 090°22'  
Track history (hours):
 
Tides and Currents Weather Stations Pressure Air Temp Water Temp Dewpoint Dewpoint Depression Visibility Wind Speed Wind Dir Waves Ship Positions

Capt. Troy Green

Owner: Blessey Enterprises, Inc., Harahan, LA. More information available from US FCC via Universal Licensing System and Coast Guard Vessel Documentation Center.

Last reported at 2017-Sep-12 04:57 UTC. Time now 2017-Sep-23 07:45 UTC.
Position N 29°34' W 090°29'.
Warning: this ship's position is 11 days out of date.

Length 22 m; draft 3.3 m.

Type: Other ship. MMSI: 367710960.

Date/timePositionNaut miles runAvg speedWind from/ knotsBaromVisibWave heightAir tempDewpointWater temp
2017-Sep-12 04:57N 29°34' W 090°29'3 7.2
2017-Sep-12 04:30N 29°34' W 090°33'3 6.0
2017-Sep-12 04:00N 29°35' W 090°36'3 6.2
2017-Sep-12 03:30N 29°36' W 090°39'3 5.5
2017-Sep-12 03:00N 29°37' W 090°42'2 4.9
2017-Sep-12 02:30N 29°34' W 090°43'3 6.0
2017-Sep-12 02:00N 29°32' W 090°46'4 7.2
2017-Sep-12 01:30N 29°32' W 090°50'67 5.8
2017-Sep-11 13:59N 29°48' W 092°05'3 6.7
2017-Sep-11 13:29N 29°47' W 092°08'3 6.4
2017-Sep-11 13:00N 29°47' W 092°12'3 5.5
2017-Sep-11 12:29N 29°48' W 092°15'3 6.3
2017-Sep-11 11:58N 29°50' W 092°18'43 6.5
2017-Sep-11 05:28N 29°56' W 093°07'3 6.0
2017-Sep-11 05:00N 29°56' W 093°10'3 6.3
2017-Sep-11 04:28N 29°59' W 093°12'3 5.9
2017-Sep-11 04:00N 30°01' W 093°14'3 5.4
2017-Sep-11 03:29N 30°04' W 093°16'3 4.7
2017-Sep-11 02:55N 30°06' W 093°18'1 3.6
2017-Sep-11 02:30N 30°05' W 093°20'3 4.6
2017-Sep-11 01:57N 30°04' W 093°22'3 6.8
2017-Sep-11 01:30N 30°04' W 093°25'4 8.1
2017-Sep-11 01:00N 30°04' W 093°30'4 8.0
2017-Sep-11 00:30N 30°04' W 093°35'4 7.4
2017-Sep-11 00:00N 30°04' W 093°39'21 2.1
2017-Sep-10 13:50N 29°50' W 093°58'17 1.7
2017-Sep-10 03:45N 30°02' W 093°44'3 7.6
2017-Sep-10 03:24N 30°04' W 093°42'2 6.2
2017-Sep-10 03:00N 30°04' W 093°39'3 5.9
2017-Sep-10 02:30N 30°04' W 093°35'2 4.4
2017-Sep-10 02:00N 30°04' W 093°33'2 4.7
2017-Sep-10 01:30N 30°04' W 093°30'2 4.7
2017-Sep-10 01:00N 30°04' W 093°27'2 4.7
2017-Sep-10 00:30N 30°04' W 093°25'2 4.2
2017-Sep-10 00:00N 30°04' W 093°22'2 3.2
2017-Sep-09 23:30N 30°04' W 093°21'1 2.2
2017-Sep-09 23:00N 30°05' W 093°20'2 3.2
2017-Sep-09 22:30N 30°06' W 093°18'0 0.0
2017-Sep-09 22:00N 30°06' W 093°18'0 0.0
2017-Sep-09 21:30N 30°06' W 093°18'0 0.0
2017-Sep-09 21:00N 30°06' W 093°18'0 0.0
2017-Sep-09 20:30N 30°06' W 093°18'0 0.0
2017-Sep-09 20:00N 30°06' W 093°18'0 0.0
2017-Sep-09 19:30N 30°06' W 093°18'0 0.0
2017-Sep-09 19:00N 30°06' W 093°18'0 0.0
2017-Sep-09 18:30N 30°06' W 093°18'0 0.0
2017-Sep-09 18:00N 30°06' W 093°18'0 0.0
2017-Sep-09 17:30N 30°06' W 093°18'0 0.0
2017-Sep-09 17:00N 30°06' W 093°18'0 0.0
2017-Sep-09 16:30N 30°06' W 093°18'0 0.0
2017-Sep-09 16:00N 30°06' W 093°18'0 0.0
2017-Sep-09 15:30N 30°06' W 093°18'0 0.0
2017-Sep-09 15:00N 30°06' W 093°18'0 0.0
2017-Sep-09 14:29N 30°06' W 093°18'0 0.0
2017-Sep-09 13:58N 30°06' W 093°18'0 0.0
2017-Sep-09 13:03N 30°06' W 093°18'0 0.0
2017-Sep-09 13:00N 30°06' W 093°18'0 0.0
2017-Sep-09 12:30N 30°06' W 093°18'0 0.0
2017-Sep-09 12:00N 30°06' W 093°18'0 0.0
2017-Sep-09 11:29N 30°06' W 093°18'0 0.0
2017-Sep-09 10:57N 30°06' W 093°18'0 0.0
2017-Sep-09 10:26N 30°06' W 093°18'0 0.0
2017-Sep-09 09:58N 30°06' W 093°18'0 0.0
2017-Sep-09 09:30N 30°06' W 093°18'0 0.0
2017-Sep-09 08:58N 30°06' W 093°18'0 0.1
2017-Sep-09 08:30N 30°06' W 093°18'0 0.0
2017-Sep-09 07:59N 30°06' W 093°18'0 0.0
2017-Sep-09 07:30N 30°06' W 093°18'0 0.0
2017-Sep-09 07:00N 30°06' W 093°18'0 0.0
2017-Sep-09 06:30N 30°06' W 093°18'0 0.0
2017-Sep-09 04:29N 30°06' W 093°18'0 0.0
2017-Sep-09 03:50N 30°06' W 093°18'0 0.0
2017-Sep-09 03:10N 30°06' W 093°18'0 0.0
2017-Sep-09 03:00N 30°06' W 093°18'0 0.0
2017-Sep-09 02:22N 30°06' W 093°18'0 0.0
2017-Sep-09 02:00N 30°06' W 093°18'0 0.0
2017-Sep-09 01:21N 30°06' W 093°18'0 0.0
2017-Sep-09 01:00N 30°06' W 093°18'0 0.0
2017-Sep-09 00:30N 30°06' W 093°18'0 0.0
2017-Sep-09 00:00N 30°06' W 093°18'0 0.0
2017-Sep-08 23:30N 30°06' W 093°18'0 0.0
2017-Sep-08 23:00N 30°06' W 093°18'0 0.0
2017-Sep-08 22:30N 30°06' W 093°18'0 0.0
2017-Sep-08 22:00N 30°06' W 093°18'0 0.0
2017-Sep-08 21:30N 30°06' W 093°18'0 0.0
2017-Sep-08 21:00N 30°06' W 093°18'0 0.0
2017-Sep-08 20:30N 30°06' W 093°18'0 0.0
2017-Sep-08 20:00N 30°06' W 093°18'0 0.0
2017-Sep-08 19:30N 30°06' W 093°18'0 0.0
2017-Sep-08 19:00N 30°06' W 093°18'0 0.0
2017-Sep-08 18:30N 30°06' W 093°18'0 0.0
2017-Sep-08 18:00N 30°06' W 093°18'0 0.0
2017-Sep-08 17:30N 30°06' W 093°18'0 0.0
2017-Sep-08 17:00N 30°06' W 093°18'0 0.0
2017-Sep-08 16:30N 30°06' W 093°18'0 0.0
2017-Sep-08 16:00N 30°06' W 093°18'0 0.0
2017-Sep-08 15:30N 30°06' W 093°18'0 0.0
2017-Sep-08 15:00N 30°06' W 093°18'0 0.0
2017-Sep-08 14:30N 30°06' W 093°18'0 0.0
2017-Sep-08 14:00N 30°06' W 093°18'0 0.0
2017-Sep-08 13:30N 30°06' W 093°18'0 0.0
2017-Sep-08 13:00N 30°06' W 093°18'0 0.1
2017-Sep-08 12:30N 30°06' W 093°18'0 0.0
2017-Sep-08 12:00N 30°06' W 093°18'0 0.1
2017-Sep-08 11:30N 30°06' W 093°18'5 2.8
2017-Sep-08 09:53N 30°02' W 093°15'6 5.5
2017-Sep-08 08:48N 29°58' W 093°11'46 5.8
2017-Sep-08 00:54N 29°50' W 092°18'2 5.1
2017-Sep-08 00:30N 29°49' W 092°17'3 5.6
2017-Sep-08 00:00N 29°48' W 092°14'2 4.2
2017-Sep-07 23:30N 29°47' W 092°11'1 1.5
2017-Sep-07 23:00N 29°47' W 092°11'2 4.6
2017-Sep-07 22:30N 29°47' W 092°08'3 6.0
2017-Sep-07 22:00N 29°48' W 092°05'3 6.1
2017-Sep-07 21:30N 29°49' W 092°01'56 5.8
2017-Sep-07 11:43N 29°36' W 090°58'1 6.7
2017-Sep-07 11:30N 29°35' W 090°57'3 6.7
2017-Sep-07 11:00N 29°33' W 090°54'4 6.5
2017-Sep-07 10:28N 29°32' W 090°50'3 6.5
2017-Sep-07 10:00N 29°32' W 090°47'3 5.2
2017-Sep-07 09:30N 29°34' W 090°45'2 4.3
2017-Sep-07 09:00N 29°35' W 090°43'2 3.5
2017-Sep-07 08:30N 29°37' W 090°41'2 4.7
2017-Sep-07 08:00N 29°36' W 090°39'3 5.7
2017-Sep-07 07:30N 29°35' W 090°36'3 5.7
2017-Sep-07 07:00N 29°34' W 090°33'3 6.3
2017-Sep-07 06:30N 29°34' W 090°29'3 6.2
2017-Sep-07 06:00N 29°33' W 090°26'2 4.6
2017-Sep-07 05:29N 29°34' W 090°23'3 5.2
2017-Sep-07 04:58N 29°36' W 090°22'  

Dump ship's entire track history